Impacts TAF Board
For situational awareness. Not to be used for flight planning purposes.
IDs:

KEWR - Newark Intl, NJ, US

Issued at 1126 UTC 10 Aug 2022
Updated at 1313 UTC 10 Aug 2022
Potential Impact None Slight Moderate High
Time1251Z 10/14Z 10/15Z 10/16Z 10/17Z 10/18Z 10/19Z 10/20Z 10/21Z 10/22Z 10/23Z 11/00Z 11/01Z 11/02Z>>
Type OBS PRVL PRVL PRVL PRVL PRVL PRVL PRVL PRVL PRVL PRVL PRVL PRVL PRVL
  [PRB30]  
VIS 10 >6 >6 >6 >6 >6 >6 >6 >6 >6 >6 >6 >6 >6
  [>6]  
CIG 55 -- -- -- -- 60 60 60 60 60 60 60 60 60
  [60]  
Cover BKN SCT SCT SCT SCT BKN BKN BKN BKN BKN BKN OVC OVC OVC
  [OVC]  
FltCat VFR VFR VFR VFR VFR VFR VFR VFR VFR VFR VFR VFR VFR VFR
  [VFR]  
WX -- -- -- -- -- -- -- -- -- -- -- -- -- --
  [-SHRA]  
WDir 30 20 20 VRB VRB 280 280 280 160 160 160 VRB VRB VRB
[VRB]
WSpd 9 9 9 3 3 6 6 6 7 7 7 4 4 4
  [4]  
WGst -- -- -- -- -- -- -- -- -- -- -- -- -- --
  [--]  
WSHgt -- -- -- -- -- -- -- -- -- -- -- -- -- --
[--]
WSDir -- -- -- -- -- -- -- -- -- -- -- -- -- --
[--]
WSSpd -- -- -- -- -- -- -- -- -- -- -- -- -- --
[--]
Raw TAF
KEWR 101126Z 1012/1118 02009KT P6SM SCT040 SCT120
  FM101600 VRB03KT P6SM SCT045
  FM101800 28006KT P6SM BKN060
  FM102100 16007KT P6SM BKN060
  FM110000 VRB04KT P6SM OVC060
  PROB30 1102/1107 -SHRA
  FM110700 02004KT P6SM OVC040
  PROB30 1107/1112 -SHRA


Raw METAR
KEWR 101251Z 03009KT 10SM SCT035 BKN055 26/17 A3006 RMK AO2 SLP178 T02610167
KEWR 101151Z 02008KT 10SM BKN038 BKN120 BKN250 26/17 A3006 RMK AO2 SLP179 T02560167 10278 20239 53017
KEWR 101051Z 01009KT 10SM FEW045 SCT100 BKN250 24/17 A3004 RMK AO2 SLP171 T02440167

METAR Board
Radar Display
Forecast Discussion
For situational awareness. Not to be used for flight planning purposes.